Midland, MI

4:30 PM EST on February 12, 2016 (GMT -0500)
Barstow | | Change Station
CLOSE
Current Station
Airport
Location: Midland,
Elevation: 636 ft
Nearby Weather Stations

Elev 636 ft 43.66 °N, 84.26 °W | Updated 16 minutes ago

Light Snow
Light Snow
18 °F
Feels Like 4 °F
N
15
Wind Variable Wind from WNW
Gusts 31 mph

Today
High -- | Low -- °F
--% Chance of Precip.
Yesterday
High -- | Low -- °F
Precip. -- in
Pressure 29.97 in
Visibility 1.8 miles
Clouds Mostly Cloudy 1900 ft
Mostly Cloudy 3000 ft
Overcast 4600 ft
Windchill 4 °F
Dew Point 8 °F
Humidity 63%
Rainfall 0.00 in
Snow Depth Not available.
7:40 AM 6:02 PM
Waxing Crescent, 24% visible
METAR KIKW 122114Z AUTO 30013G27KT 1 3/4SM -SN BKN019 BKN030 OVC046 M08/M14 A2997 RMK AO2 T10761136
Pressure 29.97 in
Visibility 1.8 miles
Clouds Mostly Cloudy 1900 ft
Mostly Cloudy 3000 ft
Overcast 4600 ft
Windchill 4 °F
Dew Point 8 °F
Humidity 63%
Rainfall 0.00 in
Snow Depth Not available.
7:40 AM 6:02 PM
Waxing Crescent, 24% visible
METAR KIKW 122114Z AUTO 30013G27KT 1 3/4SM -SN BKN019 BKN030 OVC046 M08/M14 A2997 RMK AO2 T10761136

10-Day Weather Forecast

Almanac

Astronomy

Feb. 12, 2016 Rise Set
Actual Time
Civil Twilight
Nautical Twilight
Astronomical Twilight
Moon
Length of Visible Light
Length of Day
Tomorrow will be .
, % of the Moon is Illuminated

Today's Extremes

State Highs State Lows

Community

WunderPhotos

Upload Photos

1,892,403 photos uploaded!

WunderBlog® & News

Nearby

Air Quality

  Air Quality AQ Index Pollutant
Not available.

Snow Depth

Station Depth Elevation

Earthquake Activity

City Distance Mag. Time & Date
Minimum magnitude displayed is 2.5.

Coastal Water Temperatures

Place Temperature

Stations

Nearby Weather Stations

Station Location Temp. Windchill Dew Point Humidity Wind Precip. Elev Updated Type
                   

Watches & Warnings

There are currently no watches in effect.